sensor_id;sensor_type;location;lat;lon;timestamp;temperature;humidity
13606;DHT22;6874;52.084;5.090;2023-04-24T00:01:50;11.40;99.90
13606;DHT22;6874;52.084;5.090;2023-04-24T00:04:17;11.40;99.90
13606;DHT22;6874;52.084;5.090;2023-04-24T00:06:43;11.30;99.90
13606;DHT22;6874;52.084;5.090;2023-04-24T00:09:09;11.40;99.90
13606;DHT22;6874;52.084;5.090;2023-04-24T00:11:35;11.30;99.90
13606;DHT22;6874;52.084;5.090;2023-04-24T00:14:02;11.30;99.90
13606;DHT22;6874;52.084;5.090;2023-04-24T00:16:28;11.30;99.90
13606;DHT22;6874;52.084;5.090;2023-04-24T00:19:08;11.30;99.90
13606;DHT22;6874;52.084;5.090;2023-04-24T00:24:46;11.20;99.90
13606;DHT22;6874;52.084;5.090;2023-04-24T00:27:12;11.20;99.90
13606;DHT22;6874;52.084;5.090;2023-04-24T00:29:38;11.20;99.90
13606;DHT22;6874;52.084;5.090;2023-04-24T00:32:03;11.20;99.90
13606;DHT22;6874;52.084;5.090;2023-04-24T00:34:32;11.20;99.90
13606;DHT22;6874;52.084;5.090;2023-04-24T00:37:05;11.20;99.90
13606;DHT22;6874;52.084;5.090;2023-04-24T00:40:14;11.20;99.90
13606;DHT22;6874;52.084;5.090;2023-04-24T00:42:40;11.10;99.90
13606;DHT22;6874;52.084;5.090;2023-04-24T00:45:32;11.10;99.90
13606;DHT22;6874;52.084;5.090;2023-04-24T00:48:01;11.20;99.90
13606;DHT22;6874;52.084;5.090;2023-04-24T00:50:28;11.10;99.90
13606;DHT22;6874;52.084;5.090;2023-04-24T00:53:03;11.10;99.90
13606;DHT22;6874;52.084;5.090;2023-04-24T00:55:33;11.10;99.90
13606;DHT22;6874;52.084;5.090;2023-04-24T00:58:14;11.10;99.90
13606;DHT22;6874;52.084;5.090;2023-04-24T01:04:02;11.10;99.90
13606;DHT22;6874;52.084;5.090;2023-04-24T01:06:48;11.10;99.90
13606;DHT22;6874;52.084;5.090;2023-04-24T01:09:16;11.00;99.90
13606;DHT22;6874;52.084;5.090;2023-04-24T01:11:42;11.00;99.90
13606;DHT22;6874;52.084;5.090;2023-04-24T01:14:26;11.00;99.90
13606;DHT22;6874;52.084;5.090;2023-04-24T01:17:03;11.10;99.90
13606;DHT22;6874;52.084;5.090;2023-04-24T01:20:17;11.00;99.90
13606;DHT22;6874;52.084;5.090;2023-04-24T01:22:46;11.00;99.90
13606;DHT22;6874;52.084;5.090;2023-04-24T01:25:12;11.00;99.90
13606;DHT22;6874;52.084;5.090;2023-04-24T01:27:43;11.00;99.90
13606;DHT22;6874;52.084;5.090;2023-04-24T01:30:29;11.00;99.90
13606;DHT22;6874;52.084;5.090;2023-04-24T01:33:26;11.00;99.90
13606;DHT22;6874;52.084;5.090;2023-04-24T01:36:24;10.90;99.90
13606;DHT22;6874;52.084;5.090;2023-04-24T01:38:56;11.00;99.90
13606;DHT22;6874;52.084;5.090;2023-04-24T01:41:24;11.00;99.90
13606;DHT22;6874;52.084;5.090;2023-04-24T01:43:53;11.00;99.90
13606;DHT22;6874;52.084;5.090;2023-04-24T01:46:20;11.00;99.90
13606;DHT22;6874;52.084;5.090;2023-04-24T01:48:48;10.90;99.90
13606;DHT22;6874;52.084;5.090;2023-04-24T01:51:32;10.90;99.90
13606;DHT22;6874;52.084;5.090;2023-04-24T01:54:15;10.90;99.90
13606;DHT22;6874;52.084;5.090;2023-04-24T01:56:50;10.90;99.90
13606;DHT22;6874;52.084;5.090;2023-04-24T01:59:20;10.90;99.90
13606;DHT22;6874;52.084;5.090;2023-04-24T02:02:15;11.00;99.90
13606;DHT22;6874;52.084;5.090;2023-04-24T02:04:45;10.90;99.90
13606;DHT22;6874;52.084;5.090;2023-04-24T02:07:21;10.80;99.90
13606;DHT22;6874;52.084;5.090;2023-04-24T02:09:58;10.90;99.90
13606;DHT22;6874;52.084;5.090;2023-04-24T02:12:44;10.90;99.90
13606;DHT22;6874;52.084;5.090;2023-04-24T02:15:43;10.90;99.90
13606;DHT22;6874;52.084;5.090;2023-04-24T02:18:12;10.80;99.90
13606;DHT22;6874;52.084;5.090;2023-04-24T02:20:38;10.90;99.90
13606;DHT22;6874;52.084;5.090;2023-04-24T02:23:04;10.80;99.90
13606;DHT22;6874;52.084;5.090;2023-04-24T02:25:31;10.80;99.90
13606;DHT22;6874;52.084;5.090;2023-04-24T02:28:10;10.80;99.90
13606;DHT22;6874;52.084;5.090;2023-04-24T02:30:36;10.80;99.90
13606;DHT22;6874;52.084;5.090;2023-04-24T02:33:12;10.80;99.90
13606;DHT22;6874;52.084;5.090;2023-04-24T02:35:41;10.80;99.90
13606;DHT22;6874;52.084;5.090;2023-04-24T02:38:07;10.80;99.90
13606;DHT22;6874;52.084;5.090;2023-04-24T02:40:32;10.80;99.90
13606;DHT22;6874;52.084;5.090;2023-04-24T02:42:59;10.80;99.90
13606;DHT22;6874;52.084;5.090;2023-04-24T02:45:32;10.80;99.90
13606;DHT22;6874;52.084;5.090;2023-04-24T02:48:00;10.80;99.90
13606;DHT22;6874;52.084;5.090;2023-04-24T02:50:25;10.80;99.90
13606;DHT22;6874;52.084;5.090;2023-04-24T02:52:51;10.80;99.90
13606;DHT22;6874;52.084;5.090;2023-04-24T02:55:17;10.80;99.90
13606;DHT22;6874;52.084;5.090;2023-04-24T02:57:43;10.70;99.90
13606;DHT22;6874;52.084;5.090;2023-04-24T03:00:09;10.70;99.90
13606;DHT22;6874;52.084;5.090;2023-04-24T03:02:35;10.70;99.90
13606;DHT22;6874;52.084;5.090;2023-04-24T03:05:01;10.70;99.90
13606;DHT22;6874;52.084;5.090;2023-04-24T03:07:27;10.80;99.90
13606;DHT22;6874;52.084;5.090;2023-04-24T03:09:53;10.80;99.90
13606;DHT22;6874;52.084;5.090;2023-04-24T03:12:18;10.70;99.90
13606;DHT22;6874;52.084;5.090;2023-04-24T03:14:44;10.70;99.90
13606;DHT22;6874;52.084;5.090;2023-04-24T03:17:13;10.70;99.90
13606;DHT22;6874;52.084;5.090;2023-04-24T03:19:41;10.70;99.90
13606;DHT22;6874;52.084;5.090;2023-04-24T03:22:07;10.70;99.90
13606;DHT22;6874;52.084;5.090;2023-04-24T03:24:37;10.70;99.90
13606;DHT22;6874;52.084;5.090;2023-04-24T03:27:15;10.70;99.90
13606;DHT22;6874;52.084;5.090;2023-04-24T03:30:14;10.60;99.90
13606;DHT22;6874;52.084;5.090;2023-04-24T03:33:05;10.60;99.90
13606;DHT22;6874;52.084;5.090;2023-04-24T03:35:43;10.60;99.90
13606;DHT22;6874;52.084;5.090;2023-04-24T03:38:28;10.60;99.90
13606;DHT22;6874;52.084;5.090;2023-04-24T03:41:55;10.60;99.90
13606;DHT22;6874;52.084;5.090;2023-04-24T03:44:26;10.60;99.90
13606;DHT22;6874;52.084;5.090;2023-04-24T03:46:52;10.60;99.90
13606;DHT22;6874;52.084;5.090;2023-04-24T03:49:18;10.70;99.90
13606;DHT22;6874;52.084;5.090;2023-04-24T03:51:46;10.60;99.90
13606;DHT22;6874;52.084;5.090;2023-04-24T03:54:13;10.60;99.90
13606;DHT22;6874;52.084;5.090;2023-04-24T03:56:39;10.60;99.90
13606;DHT22;6874;52.084;5.090;2023-04-24T03:59:05;10.50;99.90
13606;DHT22;6874;52.084;5.090;2023-04-24T04:01:31;10.50;99.90
13606;DHT22;6874;52.084;5.090;2023-04-24T04:03:56;10.50;99.90
13606;DHT22;6874;52.084;5.090;2023-04-24T04:06:22;10.50;99.90
13606;DHT22;6874;52.084;5.090;2023-04-24T04:08:48;10.50;99.90
13606;DHT22;6874;52.084;5.090;2023-04-24T04:11:13;10.50;99.90
13606;DHT22;6874;52.084;5.090;2023-04-24T04:13:39;10.50;99.90
13606;DHT22;6874;52.084;5.090;2023-04-24T04:16:05;10.50;99.90
13606;DHT22;6874;52.084;5.090;2023-04-24T04:18:30;10.50;99.90
13606;DHT22;6874;52.084;5.090;2023-04-24T04:20:57;10.50;99.90
13606;DHT22;6874;52.084;5.090;2023-04-24T04:23:26;10.50;99.90
13606;DHT22;6874;52.084;5.090;2023-04-24T04:25:54;10.50;99.90
13606;DHT22;6874;52.084;5.090;2023-04-24T04:28:21;10.50;99.90
13606;DHT22;6874;52.084;5.090;2023-04-24T04:30:47;10.40;99.90
13606;DHT22;6874;52.084;5.090;2023-04-24T04:33:12;10.40;99.90
13606;DHT22;6874;52.084;5.090;2023-04-24T04:35:40;10.40;99.90
13606;DHT22;6874;52.084;5.090;2023-04-24T04:38:06;10.40;99.90
13606;DHT22;6874;52.084;5.090;2023-04-24T04:40:33;10.40;99.90
13606;DHT22;6874;52.084;5.090;2023-04-24T04:42:59;10.40;99.90
13606;DHT22;6874;52.084;5.090;2023-04-24T04:45:24;10.40;99.90
13606;DHT22;6874;52.084;5.090;2023-04-24T04:47:52;10.40;99.90
13606;DHT22;6874;52.084;5.090;2023-04-24T04:50:17;10.40;99.90
13606;DHT22;6874;52.084;5.090;2023-04-24T04:52:44;10.40;99.90
13606;DHT22;6874;52.084;5.090;2023-04-24T04:55:10;10.30;99.90
13606;DHT22;6874;52.084;5.090;2023-04-24T04:57:36;10.30;99.90
13606;DHT22;6874;52.084;5.090;2023-04-24T05:00:02;10.30;99.90
13606;DHT22;6874;52.084;5.090;2023-04-24T05:02:27;10.30;99.90
13606;DHT22;6874;52.084;5.090;2023-04-24T05:04:53;10.30;99.90
13606;DHT22;6874;52.084;5.090;2023-04-24T05:07:18;10.30;99.90
13606;DHT22;6874;52.084;5.090;2023-04-24T05:09:44;10.30;99.90
13606;DHT22;6874;52.084;5.090;2023-04-24T05:12:10;10.30;99.90
13606;DHT22;6874;52.084;5.090;2023-04-24T05:14:35;10.30;99.90
13606;DHT22;6874;52.084;5.090;2023-04-24T05:17:01;10.20;99.90
13606;DHT22;6874;52.084;5.090;2023-04-24T05:19:26;10.20;99.90
13606;DHT22;6874;52.084;5.090;2023-04-24T05:21:52;10.40;99.90
13606;DHT22;6874;52.084;5.090;2023-04-24T05:24:17;10.20;99.90
13606;DHT22;6874;52.084;5.090;2023-04-24T05:26:43;10.20;99.90
13606;DHT22;6874;52.084;5.090;2023-04-24T05:29:09;10.20;99.90
13606;DHT22;6874;52.084;5.090;2023-04-24T05:31:37;10.20;99.90
13606;DHT22;6874;52.084;5.090;2023-04-24T05:34:02;10.20;99.90
13606;DHT22;6874;52.084;5.090;2023-04-24T05:36:28;10.10;99.90
13606;DHT22;6874;52.084;5.090;2023-04-24T05:38:53;10.10;99.90
13606;DHT22;6874;52.084;5.090;2023-04-24T05:41:19;10.10;99.90
13606;DHT22;6874;52.084;5.090;2023-04-24T05:43:44;10.20;99.90
13606;DHT22;6874;52.084;5.090;2023-04-24T05:46:11;10.10;99.90
13606;DHT22;6874;52.084;5.090;2023-04-24T05:48:37;10.10;99.90
13606;DHT22;6874;52.084;5.090;2023-04-24T05:51:02;10.10;99.90
13606;DHT22;6874;52.084;5.090;2023-04-24T05:53:28;10.10;99.90
13606;DHT22;6874;52.084;5.090;2023-04-24T05:55:53;10.10;99.90
13606;DHT22;6874;52.084;5.090;2023-04-24T05:58:19;10.10;99.90
13606;DHT22;6874;52.084;5.090;2023-04-24T06:00:45;10.10;99.90
13606;DHT22;6874;52.084;5.090;2023-04-24T06:03:12;10.10;99.90
13606;DHT22;6874;52.084;5.090;2023-04-24T06:05:37;10.10;99.90
13606;DHT22;6874;52.084;5.090;2023-04-24T06:08:03;10.10;99.90
13606;DHT22;6874;52.084;5.090;2023-04-24T06:10:29;10.00;99.90
13606;DHT22;6874;52.084;5.090;2023-04-24T06:12:54;10.10;99.90
13606;DHT22;6874;52.084;5.090;2023-04-24T06:15:26;10.10;99.90
13606;DHT22;6874;52.084;5.090;2023-04-24T06:17:52;10.00;99.90
13606;DHT22;6874;52.084;5.090;2023-04-24T06:20:18;10.00;99.90
13606;DHT22;6874;52.084;5.090;2023-04-24T06:22:43;10.00;99.90
13606;DHT22;6874;52.084;5.090;2023-04-24T06:25:09;10.00;99.90
13606;DHT22;6874;52.084;5.090;2023-04-24T06:27:34;10.00;99.90
13606;DHT22;6874;52.084;5.090;2023-04-24T06:30:00;10.00;99.90
13606;DHT22;6874;52.084;5.090;2023-04-24T06:32:27;10.00;99.90
13606;DHT22;6874;52.084;5.090;2023-04-24T06:34:52;9.90;99.90
13606;DHT22;6874;52.084;5.090;2023-04-24T06:37:19;10.00;99.90
13606;DHT22;6874;52.084;5.090;2023-04-24T06:39:45;9.90;99.90
13606;DHT22;6874;52.084;5.090;2023-04-24T06:42:11;9.90;99.90
13606;DHT22;6874;52.084;5.090;2023-04-24T06:44:37;10.00;99.90
13606;DHT22;6874;52.084;5.090;2023-04-24T06:47:12;9.90;99.90
13606;DHT22;6874;52.084;5.090;2023-04-24T06:49:41;10.00;99.90
13606;DHT22;6874;52.084;5.090;2023-04-24T06:52:06;9.90;99.90
13606;DHT22;6874;52.084;5.090;2023-04-24T06:54:32;9.90;99.90
13606;DHT22;6874;52.084;5.090;2023-04-24T06:56:59;9.90;99.90
13606;DHT22;6874;52.084;5.090;2023-04-24T06:59:26;9.80;99.90
13606;DHT22;6874;52.084;5.090;2023-04-24T07:01:52;9.90;99.90
13606;DHT22;6874;52.084;5.090;2023-04-24T07:04:17;9.80;99.90
13606;DHT22;6874;52.084;5.090;2023-04-24T07:06:45;9.80;99.90
13606;DHT22;6874;52.084;5.090;2023-04-24T07:09:11;9.80;99.90
13606;DHT22;6874;52.084;5.090;2023-04-24T07:11:38;9.80;99.90
13606;DHT22;6874;52.084;5.090;2023-04-24T07:14:06;9.80;99.90
13606;DHT22;6874;52.084;5.090;2023-04-24T07:16:32;9.80;99.90
13606;DHT22;6874;52.084;5.090;2023-04-24T07:18:58;9.80;99.90
13606;DHT22;6874;52.084;5.090;2023-04-24T07:21:24;9.80;99.90
13606;DHT22;6874;52.084;5.090;2023-04-24T07:23:51;9.70;99.90
13606;DHT22;6874;52.084;5.090;2023-04-24T07:26:16;9.70;99.90
13606;DHT22;6874;52.084;5.090;2023-04-24T07:28:42;9.70;99.90
13606;DHT22;6874;52.084;5.090;2023-04-24T07:31:08;9.70;99.90
13606;DHT22;6874;52.084;5.090;2023-04-24T07:33:33;9.70;99.90
13606;DHT22;6874;52.084;5.090;2023-04-24T07:35:59;9.70;99.90
13606;DHT22;6874;52.084;5.090;2023-04-24T07:38:25;9.70;99.90
13606;DHT22;6874;52.084;5.090;2023-04-24T07:40:51;9.70;99.90
13606;DHT22;6874;52.084;5.090;2023-04-24T07:43:19;9.70;99.90
13606;DHT22;6874;52.084;5.090;2023-04-24T07:45:45;9.70;99.90
13606;DHT22;6874;52.084;5.090;2023-04-24T07:48:11;9.70;99.90
13606;DHT22;6874;52.084;5.090;2023-04-24T07:50:36;9.70;99.90
13606;DHT22;6874;52.084;5.090;2023-04-24T07:53:02;9.70;99.90
13606;DHT22;6874;52.084;5.090;2023-04-24T07:55:27;9.70;99.90
13606;DHT22;6874;52.084;5.090;2023-04-24T07:57:53;9.70;99.90
13606;DHT22;6874;52.084;5.090;2023-04-24T08:00:19;9.70;99.90
13606;DHT22;6874;52.084;5.090;2023-04-24T08:02:45;9.70;99.90
13606;DHT22;6874;52.084;5.090;2023-04-24T08:05:10;9.60;99.90
13606;DHT22;6874;52.084;5.090;2023-04-24T08:07:38;9.70;99.90
13606;DHT22;6874;52.084;5.090;2023-04-24T08:10:11;9.80;99.90
13606;DHT22;6874;52.084;5.090;2023-04-24T08:12:37;9.70;99.90
13606;DHT22;6874;52.084;5.090;2023-04-24T08:15:04;9.70;99.90
13606;DHT22;6874;52.084;5.090;2023-04-24T08:17:30;9.60;99.90
13606;DHT22;6874;52.084;5.090;2023-04-24T08:19:55;9.60;99.90
13606;DHT22;6874;52.084;5.090;2023-04-24T08:22:29;9.60;99.90
13606;DHT22;6874;52.084;5.090;2023-04-24T08:24:55;9.60;99.90
13606;DHT22;6874;52.084;5.090;2023-04-24T08:27:22;9.60;99.90
13606;DHT22;6874;52.084;5.090;2023-04-24T08:29:48;9.60;99.90
13606;DHT22;6874;52.084;5.090;2023-04-24T08:32:14;9.60;99.90
13606;DHT22;6874;52.084;5.090;2023-04-24T08:34:40;9.60;99.90
13606;DHT22;6874;52.084;5.090;2023-04-24T08:37:05;9.60;99.90
13606;DHT22;6874;52.084;5.090;2023-04-24T08:39:31;9.60;99.90
13606;DHT22;6874;52.084;5.090;2023-04-24T08:41:56;9.60;99.90
13606;DHT22;6874;52.084;5.090;2023-04-24T08:44:22;9.70;99.90
13606;DHT22;6874;52.084;5.090;2023-04-24T08:46:48;9.60;99.90
13606;DHT22;6874;52.084;5.090;2023-04-24T08:49:15;9.60;99.90
13606;DHT22;6874;52.084;5.090;2023-04-24T08:51:45;9.60;99.90
13606;DHT22;6874;52.084;5.090;2023-04-24T08:54:12;9.60;99.90
13606;DHT22;6874;52.084;5.090;2023-04-24T08:56:40;9.60;99.90
13606;DHT22;6874;52.084;5.090;2023-04-24T08:59:08;9.60;99.90
13606;DHT22;6874;52.084;5.090;2023-04-24T09:01:34;9.60;99.90
13606;DHT22;6874;52.084;5.090;2023-04-24T09:04:03;9.60;99.90
13606;DHT22;6874;52.084;5.090;2023-04-24T09:06:30;9.60;99.90
13606;DHT22;6874;52.084;5.090;2023-04-24T09:08:59;9.60;99.90
13606;DHT22;6874;52.084;5.090;2023-04-24T09:11:26;9.60;99.90
13606;DHT22;6874;52.084;5.090;2023-04-24T09:13:53;9.60;99.90
13606;DHT22;6874;52.084;5.090;2023-04-24T09:16:20;9.60;99.90
13606;DHT22;6874;52.084;5.090;2023-04-24T09:18:48;9.60;99.90
13606;DHT22;6874;52.084;5.090;2023-04-24T09:21:13;9.60;99.90
13606;DHT22;6874;52.084;5.090;2023-04-24T09:23:40;9.60;99.90
13606;DHT22;6874;52.084;5.090;2023-04-24T09:26:06;9.60;99.90
13606;DHT22;6874;52.084;5.090;2023-04-24T09:28:39;9.70;99.90
13606;DHT22;6874;52.084;5.090;2023-04-24T09:31:11;9.70;99.90
13606;DHT22;6874;52.084;5.090;2023-04-24T09:33:38;9.70;99.90
13606;DHT22;6874;52.084;5.090;2023-04-24T09:36:04;9.80;99.90
13606;DHT22;6874;52.084;5.090;2023-04-24T09:38:37;9.70;99.90
13606;DHT22;6874;52.084;5.090;2023-04-24T09:41:05;9.80;99.90
13606;DHT22;6874;52.084;5.090;2023-04-24T09:43:31;9.80;99.90
13606;DHT22;6874;52.084;5.090;2023-04-24T09:45:57;9.80;99.90
13606;DHT22;6874;52.084;5.090;2023-04-24T09:48:34;9.80;99.90
13606;DHT22;6874;52.084;5.090;2023-04-24T09:51:02;9.80;99.90
13606;DHT22;6874;52.084;5.090;2023-04-24T09:53:29;9.80;99.90
13606;DHT22;6874;52.084;5.090;2023-04-24T09:55:55;9.80;99.90
13606;DHT22;6874;52.084;5.090;2023-04-24T09:58:25;9.80;99.90
13606;DHT22;6874;52.084;5.090;2023-04-24T10:00:53;9.80;99.90
13606;DHT22;6874;52.084;5.090;2023-04-24T10:03:19;9.80;99.90
13606;DHT22;6874;52.084;5.090;2023-04-24T10:05:46;9.80;99.90
13606;DHT22;6874;52.084;5.090;2023-04-24T10:08:12;9.80;99.90
13606;DHT22;6874;52.084;5.090;2023-04-24T10:10:44;9.80;99.90
13606;DHT22;6874;52.084;5.090;2023-04-24T10:13:14;9.80;99.90
13606;DHT22;6874;52.084;5.090;2023-04-24T10:15:41;9.80;99.90
13606;DHT22;6874;52.084;5.090;2023-04-24T10:18:08;9.80;99.90
13606;DHT22;6874;52.084;5.090;2023-04-24T10:20:36;9.80;99.90
13606;DHT22;6874;52.084;5.090;2023-04-24T10:23:03;9.80;99.90
13606;DHT22;6874;52.084;5.090;2023-04-24T10:25:30;9.80;99.90
13606;DHT22;6874;52.084;5.090;2023-04-24T10:27:57;9.80;99.90
13606;DHT22;6874;52.084;5.090;2023-04-24T10:30:27;10.00;99.90
13606;DHT22;6874;52.084;5.090;2023-04-24T10:32:53;9.90;99.90
13606;DHT22;6874;52.084;5.090;2023-04-24T10:35:22;10.00;99.90
13606;DHT22;6874;52.084;5.090;2023-04-24T10:38:13;9.90;99.90
13606;DHT22;6874;52.084;5.090;2023-04-24T10:40:39;9.90;99.90
13606;DHT22;6874;52.084;5.090;2023-04-24T10:43:07;10.00;99.90
13606;DHT22;6874;52.084;5.090;2023-04-24T10:45:37;10.00;99.90
13606;DHT22;6874;52.084;5.090;2023-04-24T10:48:09;10.10;99.90
13606;DHT22;6874;52.084;5.090;2023-04-24T10:50:50;10.10;99.90
13606;DHT22;6874;52.084;5.090;2023-04-24T10:53:22;10.10;99.90
13606;DHT22;6874;52.084;5.090;2023-04-24T10:58:26;10.40;99.90
13606;DHT22;6874;52.084;5.090;2023-04-24T11:01:00;10.50;99.90
13606;DHT22;6874;52.084;5.090;2023-04-24T11:03:29;10.60;99.90
13606;DHT22;6874;52.084;5.090;2023-04-24T11:08:29;10.70;99.90
13606;DHT22;6874;52.084;5.090;2023-04-24T11:11:07;10.70;99.90
13606;DHT22;6874;52.084;5.090;2023-04-24T11:16:33;10.70;99.90
13606;DHT22;6874;52.084;5.090;2023-04-24T11:21:59;10.70;99.90
13606;DHT22;6874;52.084;5.090;2023-04-24T11:26:56;10.60;99.90
13606;DHT22;6874;52.084;5.090;2023-04-24T11:29:22;10.60;99.90
13606;DHT22;6874;52.084;5.090;2023-04-24T11:32:27;10.50;99.90
13606;DHT22;6874;52.084;5.090;2023-04-24T11:35:00;10.50;99.90
13606;DHT22;6874;52.084;5.090;2023-04-24T11:37:33;10.50;99.90
13606;DHT22;6874;52.084;5.090;2023-04-24T11:39:59;10.50;99.90
13606;DHT22;6874;52.084;5.090;2023-04-24T11:42:29;10.60;99.90
13606;DHT22;6874;52.084;5.090;2023-04-24T11:44:58;10.70;99.90
13606;DHT22;6874;52.084;5.090;2023-04-24T11:47:29;10.80;99.90
13606;DHT22;6874;52.084;5.090;2023-04-24T11:49:55;10.80;99.90
13606;DHT22;6874;52.084;5.090;2023-04-24T11:52:20;10.80;99.90
13606;DHT22;6874;52.084;5.090;2023-04-24T11:54:50;10.90;99.90
13606;DHT22;6874;52.084;5.090;2023-04-24T11:57:16;10.90;99.90
13606;DHT22;6874;52.084;5.090;2023-04-24T11:59:43;11.00;99.90
13606;DHT22;6874;52.084;5.090;2023-04-24T12:02:20;11.00;99.90
13606;DHT22;6874;52.084;5.090;2023-04-24T12:04:46;11.00;99.90
13606;DHT22;6874;52.084;5.090;2023-04-24T12:07:11;11.10;99.90
13606;DHT22;6874;52.084;5.090;2023-04-24T12:09:48;11.10;99.90
13606;DHT22;6874;52.084;5.090;2023-04-24T12:12:15;11.10;99.90
13606;DHT22;6874;52.084;5.090;2023-04-24T12:14:45;11.20;99.90
13606;DHT22;6874;52.084;5.090;2023-04-24T12:17:10;11.20;99.90
13606;DHT22;6874;52.084;5.090;2023-04-24T12:19:36;11.30;99.90
13606;DHT22;6874;52.084;5.090;2023-04-24T12:22:04;11.30;99.90
13606;DHT22;6874;52.084;5.090;2023-04-24T12:24:30;11.30;99.90
13606;DHT22;6874;52.084;5.090;2023-04-24T12:26:57;11.30;99.90
13606;DHT22;6874;52.084;5.090;2023-04-24T12:29:24;11.30;99.90
13606;DHT22;6874;52.084;5.090;2023-04-24T12:31:51;11.30;99.90
13606;DHT22;6874;52.084;5.090;2023-04-24T12:34:25;11.30;99.90
13606;DHT22;6874;52.084;5.090;2023-04-24T12:36:51;11.30;99.90
13606;DHT22;6874;52.084;5.090;2023-04-24T12:39:20;11.30;99.90
13606;DHT22;6874;52.084;5.090;2023-04-24T12:41:58;11.30;99.90
13606;DHT22;6874;52.084;5.090;2023-04-24T12:44:32;11.30;99.90
13606;DHT22;6874;52.084;5.090;2023-04-24T12:47:00;11.30;99.90
13606;DHT22;6874;52.084;5.090;2023-04-24T12:49:25;11.30;99.90
13606;DHT22;6874;52.084;5.090;2023-04-24T12:51:51;11.20;99.90
13606;DHT22;6874;52.084;5.090;2023-04-24T12:54:16;11.20;99.90
13606;DHT22;6874;52.084;5.090;2023-04-24T12:56:42;11.20;99.90
13606;DHT22;6874;52.084;5.090;2023-04-24T12:59:08;11.20;99.90
13606;DHT22;6874;52.084;5.090;2023-04-24T13:01:33;11.10;99.90
13606;DHT22;6874;52.084;5.090;2023-04-24T13:03:59;11.10;99.90
13606;DHT22;6874;52.084;5.090;2023-04-24T13:06:24;11.10;99.90
13606;DHT22;6874;52.084;5.090;2023-04-24T13:08:51;11.10;99.90
13606;DHT22;6874;52.084;5.090;2023-04-24T13:11:17;11.10;99.90
13606;DHT22;6874;52.084;5.090;2023-04-24T13:13:43;11.10;99.90
13606;DHT22;6874;52.084;5.090;2023-04-24T13:16:18;11.10;99.90
13606;DHT22;6874;52.084;5.090;2023-04-24T13:18:44;11.10;99.90
13606;DHT22;6874;52.084;5.090;2023-04-24T13:21:10;11.20;99.90
13606;DHT22;6874;52.084;5.090;2023-04-24T13:23:36;11.20;99.90
13606;DHT22;6874;52.084;5.090;2023-04-24T13:26:04;11.30;99.90
13606;DHT22;6874;52.084;5.090;2023-04-24T13:28:30;11.30;99.90
13606;DHT22;6874;52.084;5.090;2023-04-24T13:30:56;11.30;99.90
13606;DHT22;6874;52.084;5.090;2023-04-24T13:33:21;11.30;99.90
13606;DHT22;6874;52.084;5.090;2023-04-24T13:35:47;11.40;99.90
13606;DHT22;6874;52.084;5.090;2023-04-24T13:38:12;11.40;99.90
13606;DHT22;6874;52.084;5.090;2023-04-24T13:40:38;11.50;99.90
13606;DHT22;6874;52.084;5.090;2023-04-24T13:43:04;11.50;99.90
13606;DHT22;6874;52.084;5.090;2023-04-24T13:45:29;11.60;99.90
13606;DHT22;6874;52.084;5.090;2023-04-24T13:47:55;11.70;99.90
13606;DHT22;6874;52.084;5.090;2023-04-24T13:50:22;11.70;99.90
13606;DHT22;6874;52.084;5.090;2023-04-24T13:52:47;11.80;99.90
13606;DHT22;6874;52.084;5.090;2023-04-24T13:55:13;11.80;99.90
13606;DHT22;6874;52.084;5.090;2023-04-24T13:57:38;11.80;99.90
13606;DHT22;6874;52.084;5.090;2023-04-24T14:00:05;11.80;99.90
13606;DHT22;6874;52.084;5.090;2023-04-24T14:02:34;11.80;99.90
13606;DHT22;6874;52.084;5.090;2023-04-24T14:05:00;11.90;99.90
13606;DHT22;6874;52.084;5.090;2023-04-24T14:07:25;11.90;99.90
13606;DHT22;6874;52.084;5.090;2023-04-24T14:09:51;11.90;99.90
13606;DHT22;6874;52.084;5.090;2023-04-24T14:12:17;11.80;99.90
13606;DHT22;6874;52.084;5.090;2023-04-24T14:14:45;11.90;99.90
13606;DHT22;6874;52.084;5.090;2023-04-24T14:17:11;11.80;99.90
13606;DHT22;6874;52.084;5.090;2023-04-24T14:19:36;11.80;99.90
13606;DHT22;6874;52.084;5.090;2023-04-24T14:22:02;11.80;99.90
13606;DHT22;6874;52.084;5.090;2023-04-24T14:24:28;11.80;99.90
13606;DHT22;6874;52.084;5.090;2023-04-24T14:26:53;11.80;99.90
13606;DHT22;6874;52.084;5.090;2023-04-24T14:29:19;11.70;99.90
13606;DHT22;6874;52.084;5.090;2023-04-24T14:31:44;11.60;99.90
13606;DHT22;6874;52.084;5.090;2023-04-24T14:34:10;11.70;99.90
13606;DHT22;6874;52.084;5.090;2023-04-24T14:36:36;11.60;99.90
13606;DHT22;6874;52.084;5.090;2023-04-24T14:39:02;11.60;99.90
13606;DHT22;6874;52.084;5.090;2023-04-24T14:41:32;11.70;99.90
13606;DHT22;6874;52.084;5.090;2023-04-24T14:44:01;11.60;99.90
13606;DHT22;6874;52.084;5.090;2023-04-24T14:46:31;11.60;99.90
13606;DHT22;6874;52.084;5.090;2023-04-24T14:48:57;11.80;99.90
13606;DHT22;6874;52.084;5.090;2023-04-24T14:51:23;11.60;99.90
13606;DHT22;6874;52.084;5.090;2023-04-24T14:53:49;11.70;99.90
13606;DHT22;6874;52.084;5.090;2023-04-24T14:56:15;11.70;99.90
13606;DHT22;6874;52.084;5.090;2023-04-24T14:58:40;11.70;99.90
13606;DHT22;6874;52.084;5.090;2023-04-24T15:01:06;11.70;99.90
13606;DHT22;6874;52.084;5.090;2023-04-24T15:03:31;11.70;99.90
13606;DHT22;6874;52.084;5.090;2023-04-24T15:05:57;11.70;99.90
13606;DHT22;6874;52.084;5.090;2023-04-24T15:08:23;11.70;99.90
13606;DHT22;6874;52.084;5.090;2023-04-24T15:10:49;11.70;99.90
13606;DHT22;6874;52.084;5.090;2023-04-24T15:13:14;11.70;99.90
13606;DHT22;6874;52.084;5.090;2023-04-24T15:15:42;11.70;99.90
13606;DHT22;6874;52.084;5.090;2023-04-24T15:18:09;11.70;99.90
13606;DHT22;6874;52.084;5.090;2023-04-24T15:20:37;11.70;99.90
13606;DHT22;6874;52.084;5.090;2023-04-24T15:23:05;11.70;99.90
13606;DHT22;6874;52.084;5.090;2023-04-24T15:25:31;11.60;99.90
13606;DHT22;6874;52.084;5.090;2023-04-24T15:27:58;11.70;99.90
13606;DHT22;6874;52.084;5.090;2023-04-24T15:30:24;11.60;99.90
13606;DHT22;6874;52.084;5.090;2023-04-24T15:32:50;11.60;99.90
13606;DHT22;6874;52.084;5.090;2023-04-24T15:35:15;11.60;99.90
13606;DHT22;6874;52.084;5.090;2023-04-24T15:37:41;11.60;99.90
13606;DHT22;6874;52.084;5.090;2023-04-24T15:40:08;11.60;99.90
13606;DHT22;6874;52.084;5.090;2023-04-24T15:42:35;11.60;99.90
13606;DHT22;6874;52.084;5.090;2023-04-24T15:45:01;11.60;99.90
13606;DHT22;6874;52.084;5.090;2023-04-24T15:47:26;11.60;99.90
13606;DHT22;6874;52.084;5.090;2023-04-24T15:49:52;11.60;99.90
13606;DHT22;6874;52.084;5.090;2023-04-24T15:52:18;11.60;99.90
13606;DHT22;6874;52.084;5.090;2023-04-24T15:54:44;11.60;99.90
13606;DHT22;6874;52.084;5.090;2023-04-24T15:57:10;11.60;99.90
13606;DHT22;6874;52.084;5.090;2023-04-24T15:59:37;11.60;99.90
13606;DHT22;6874;52.084;5.090;2023-04-24T16:02:05;11.50;99.90
13606;DHT22;6874;52.084;5.090;2023-04-24T16:04:31;11.60;99.90
13606;DHT22;6874;52.084;5.090;2023-04-24T16:06:59;11.50;99.90
13606;DHT22;6874;52.084;5.090;2023-04-24T16:09:24;11.50;99.90
13606;DHT22;6874;52.084;5.090;2023-04-24T16:11:50;11.50;99.90
13606;DHT22;6874;52.084;5.090;2023-04-24T16:14:16;11.50;99.90
13606;DHT22;6874;52.084;5.090;2023-04-24T16:16:41;11.50;99.90
13606;DHT22;6874;52.084;5.090;2023-04-24T16:19:07;11.50;99.90